• Join FlightAware (Why Join?)
  • Login
  • US Flag 
12:24PM EDT


 

Airport Tracker/Info


-or-


 

Live Flight TrackerFlight Track Log ✈ N27XP ✈ 31-Mar-2014 ✈ KSOP - KGMU

Flight Track Log - Related Links

Times and Time Zones

All times are in EDT time to prevent confusion due to time zone crossing. See the N27XP flight status page for this flight to view local times or setup timezone preferences in your user account.

Time Position Orientation Groundspeed Altitude Reporting Facility
EDT Latitude Longitude Course Direction KTS MPH feet Rate Location/Type
07:02AM 35.2511 -79.6336 261° West 275 316 9,500  Level Washington Center
07:04AM 35.2208 -79.8389 260° West 293 337 13,000 1,560 Climbing Atlanta Center
07:05AM 35.2058 -79.9514 261° West 315 362 14,600 1,440 Climbing Atlanta Center
07:06AM 35.1549 -79.9610 261° West  Level FlightAware Approximate
07:06AM 35.1892 -80.0767 261° West 338 389 15,900  Level Atlanta Center
07:07AM 35.1719 -80.1969 260° West 349 402 15,900  Level Atlanta Center
07:08AM 35.1531 -80.3225 260° West 368 423 15,900  Level Atlanta Center
07:09AM 35.1358 -80.4500 261° West 381 438 16,000  Climbing Atlanta Center
07:10AM 35.1164 -80.5753 259° West 381 438 15,900 -120 Descending Atlanta Center
07:11AM 35.0992 -80.6981 260° West 375 432 15,800 -360 Descending Atlanta Center
07:11AM 35.0925 -80.7617 263° West 369 425 15,400 -840 Descending Atlanta Center
07:12AM 35.0814 -80.8231 258° West 375 432 15,000 -780 Descending Atlanta Center
07:12AM 35.0817 -80.8306 273° West 373 429 15,000 -420 Level Atlanta Center
07:13AM 35.0617 -80.9456 258° West 375 432 14,600 -420 Descending Atlanta Center
07:13AM 35.0619 -80.9506 274° West 362 417 14,600 -900 Level Atlanta Center
07:14AM 35.0475 -81.0503 260° West 370 426 13,700 -1,140 Descending Atlanta Center
07:14AM 35.0461 -81.0731 266° West 363 418 13,500 -1,440 Descending Atlanta Center
07:15AM 35.0281 -81.1953 260° West 365 420 12,200 -1,380 Descending Atlanta Center
07:16AM 35.0100 -81.3153 260° West 358 412 10,800 -1,140 Descending Atlanta Center
07:17AM 34.9933 -81.4122 258° West 370 426 10,000 -840 Descending Atlanta Center
07:17AM 34.9914 -81.4275 261° West 344 396 10,000 -120 Level Atlanta Center
07:18AM 34.9789 -81.5189 261° West 347 399 9,900 -60 Descending Atlanta Center
07:19AM 34.9603 -81.6286 258° West 336 387 9,900 -240 Level Atlanta Center
07:20AM 34.9331 -81.7333 252° West 336 387 9,500 -900 Descending Atlanta Center
07:21AM 34.9097 -81.8275 253° West 320 368 8,100 -1,500 Descending Atlanta Center
07:22AM 34.8883 -81.9219 255° West 304 350 6,500 -1,560 Descending Atlanta Center
07:23AM 34.8628 -82.0061 250° West 286 329 5,000 -1,560 Descending Atlanta Center
07:24AM 34.8433 -82.0950 255° West 281 323 3,400 -1,020 Descending Atlanta Center
07:25AM 34.8319 -82.1789 261° West 270 311 3,000 -300 Descending Atlanta Center
07:26AM 34.8603 -82.2492 296° West 239 275 2,800 -480 Descending Atlanta Center
07:27AM 34.8778 -82.3044 291° West 207 238 2,100 -660 Descending Atlanta Center
07:28AM 34.8719 -82.3500 261° West 164 189 1,500 -600 Descending Atlanta Center
07:29AM 34.8514 -82.3733 223° Southwest 111 128 900 -600 Descending Atlanta Center